| time (UTC) | temp C | wind direction | speed KPH | gust KPH | rain 1hr cm | rain 24hr cm | rain mn cm | humidity % | barometer mb |
| 20260503180503 | 17 | 127 | 4.8 | 8.0 | 0.00 | 0.00 | 0.00 | 59 | 1013.7 |
| 20260503180015 | 17 | 163 | 0.0 | 6.4 | 0.00 | 0.00 | 0.00 | 62 | 1013.7 |
| 20260503175503 | 17 | 321 | 0.0 | 8.0 | 0.00 | 0.00 | 0.00 | 63 | 1013.7 |
| 20260503175003 | 17 | 145 | 1.6 | 8.0 | 0.00 | 0.00 | 0.00 | 62 | 1013.7 |
| 20260503174515 | 17 | 320 | 3.2 | 8.0 | 0.00 | 0.00 | 0.00 | 63 | 1013.7 |
| 20260503174004 | 17 | 136 | 1.6 | 8.0 | 0.00 | 0.00 | 0.00 | 64 | 1013.7 |
| 20260503173504 | 16 | 167 | 3.2 | 6.4 | 0.00 | 0.00 | 0.00 | 65 | 1013.5 |
| 20260503173018 | 16 | 323 | 1.6 | 6.4 | 0.00 | 0.00 | 0.00 | 65 | 1013.5 |
| 20260503172510 | 15 | 124 | 1.6 | 14.5 | 0.00 | 0.00 | 0.00 | 68 | 1013.5 |
| 20260503172007 | 15 | 161 | 3.2 | 14.5 | 0.00 | 0.00 | 0.00 | 67 | 1013.5 |
| 20260503171519 | 16 | 175 | 3.2 | 12.9 | 0.00 | 0.00 | 0.00 | 67 | 1013.5 |
| 20260503171007 | 16 | 217 | 3.2 | 12.9 | 0.00 | 0.00 | 0.00 | 66 | 1013.4 |
| 20260503170509 | 16 | 178 | 6.4 | 12.9 | 0.00 | 0.00 | 0.00 | 65 | 1013.5 |
| 20260503151004 | 13 | 192 | 0.0 | 6.4 | 0.00 | 0.00 | 0.00 | 79 | 1013.2 |
| 20260503150505 | 12 | 193 | 1.6 | 4.8 | 0.00 | 0.00 | 0.00 | 78 | 1013.1 |
| 20260503131010 | 12 | 309 | 0.0 | 0.0 | 0.00 | 0.00 | 0.00 | 81 | 1011.9 |
| 20260503130508 | 12 | 309 | 0.0 | 0.0 | 0.00 | 0.00 | 0.00 | 81 | 1011.9 |
| 20260503110507 | 12 | 297 | 0.0 | 3.2 | 0.00 | 0.00 | 0.00 | 78 | 1011.5 |
| 20260503090506 | 12 | 301 | 1.6 | 3.2 | 0.00 | 0.00 | 0.00 | 77 | 1011.8 |
| 20260503081524 | 12 | 312 | 0.0 | 4.8 | 0.00 | 0.00 | 0.00 | 77 | 1012.2 |
| 20260503081008 | 12 | 293 | 0.0 | 4.8 | 0.00 | 0.00 | 0.00 | 76 | 1012.1 |
| 20260503080508 | 12 | 342 | 0.0 | 4.8 | 0.00 | 0.00 | 0.00 | 76 | 1012.2 |
| 20260503072504 | 13 | 300 | 0.0 | 3.2 | 0.00 | 0.00 | 0.00 | 76 | 1012.2 |
| 20260503072004 | 13 | 303 | 0.0 | 4.8 | 0.00 | 0.00 | 0.00 | 76 | 1012.2 |
| 20260503071519 | 13 | 337 | 0.0 | 4.8 | 0.00 | 0.00 | 0.00 | 76 | 1012.2 |
| 20260503071009 | 13 | 306 | 0.0 | 1.6 | 0.00 | 0.00 | 0.00 | 75 | 1012.2 |
| 20260503070508 | 13 | 350 | 0.0 | 3.2 | 0.00 | 0.00 | 0.00 | 75 | 1012.2 |
| 20260503055007 | 13 | 290 | 0.0 | 1.6 | 0.00 | 0.00 | 0.00 | 74 | 1012.5 |
| 20260503054519 | 13 | 285 | 0.0 | 1.6 | 0.00 | 0.00 | 0.00 | 74 | 1012.5 |
| 20260503054009 | 13 | 305 | 0.0 | 1.6 | 0.00 | 0.00 | 0.00 | 74 | 1012.5 |
| 20260503053508 | 13 | 305 | 0.0 | 1.6 | 0.00 | 0.00 | 0.00 | 74 | 1012.5 |
| 20260503053023 | 13 | 305 | 0.0 | 1.6 | 0.00 | 0.00 | 0.00 | 73 | 1012.5 |
| 20260503052509 | 13 | 322 | 0.0 | 3.2 | 0.00 | 0.00 | 0.00 | 73 | 1012.5 |
| 20260503052010 | 13 | 320 | 0.0 | 3.2 | 0.00 | 0.00 | 0.00 | 73 | 1012.7 |
| 20260503051525 | 13 | 278 | 0.0 | 1.6 | 0.00 | 0.00 | 0.00 | 73 | 1012.7 |
| 20260503051009 | 13 | 275 | 0.0 | 3.2 | 0.00 | 0.00 | 0.00 | 74 | 1012.7 |
| 20260503050506 | 13 | 250 | 0.0 | 3.2 | 0.00 | 0.00 | 0.00 | 74 | 1012.6 |
| 20260503050026 | 13 | 281 | 1.6 | 3.2 | 0.00 | 0.00 | 0.00 | 74 | 1012.6 |
| 20260503045504 | 13 | 233 | 0.0 | 3.2 | 0.00 | 0.00 | 0.00 | 74 | 1012.6 |
| 20260503045005 | 13 | 323 | 0.0 | 4.8 | 0.00 | 0.00 | 0.00 | 74 | 1012.5 |
| 20260503044517 | 13 | 295 | 0.0 | 4.8 | 0.00 | 0.00 | 0.00 | 74 | 1012.5 |
| 20260503044006 | 13 | 266 | 0.0 | 4.8 | 0.00 | 0.00 | 0.00 | 74 | 1012.4 |
| 20260503043509 | 13 | 293 | 1.6 | 6.4 | 0.00 | 0.00 | 0.00 | 74 | 1012.4 |
| 20260503043021 | 13 | 307 | 1.6 | 6.4 | 0.00 | 0.00 | 0.00 | 74 | 1012.3 |
| 20260503042509 | 13 | 294 | 1.6 | 4.8 | 0.00 | 0.00 | 0.00 | 74 | 1012.3 |
| 20260503042011 | 13 | 35 | 1.6 | 4.8 | 0.00 | 0.00 | 0.00 | 74 | 1012.2 |
| 20260503041509 | 13 | 304 | 1.6 | 4.8 | 0.00 | 0.00 | 0.00 | 74 | 1012.1 |
| 20260503041005 | 13 | 324 | 1.6 | 4.8 | 0.00 | 0.00 | 0.00 | 74 | 1012.0 |
| 20260503040506 | 13 | 342 | 0.0 | 4.8 | 0.00 | 0.00 | 0.00 | 74 | 1011.9 |
| 20260503040011 | 13 | 347 | 0.0 | 3.2 | 0.00 | 0.00 | 0.00 | 74 | 1011.9 |
| 20260503035503 | 13 | 307 | 1.6 | 3.2 | 0.00 | 0.00 | 0.00 | 73 | 1011.8 |
| 20260503035004 | 13 | 359 | 1.6 | 6.4 | 0.00 | 0.00 | 0.00 | 73 | 1011.7 |
| 20260503034527 | 13 | 317 | 0.0 | 6.4 | 0.00 | 0.00 | 0.00 | 73 | 1011.6 |
| 20260503034005 | 13 | 229 | 0.0 | 6.4 | 0.00 | 0.00 | 0.00 | 73 | 1011.7 |
| 20260503033508 | 13 | 340 | 1.6 | 6.4 | 0.00 | 0.00 | 0.00 | 72 | 1011.7 |
| 20260503033027 | 13 | 329 | 0.0 | 8.0 | 0.00 | 0.00 | 0.00 | 72 | 1011.5 |
| 20260503032512 | 14 | 314 | 1.6 | 8.0 | 0.00 | 0.00 | 0.00 | 72 | 1011.6 |
| 20260503032009 | 14 | 281 | 3.2 | 8.0 | 0.00 | 0.00 | 0.00 | 71 | 1011.5 |
| 20260503031522 | 14 | 353 | 1.6 | 8.0 | 0.00 | 0.00 | 0.00 | 71 | 1011.5 |
| 20260503031016 | 14 | 299 | 0.0 | 8.0 | 0.00 | 0.00 | 0.00 | 71 | 1011.5 |
| 20260503030509 | 15 | 333 | 1.6 | 6.4 | 0.00 | 0.00 | 0.00 | 71 | 1011.4 |
| 20260503030006 | 15 | 324 | 1.6 | 6.4 | 0.00 | 0.00 | 0.00 | 70 | 1011.3 |
| 20260503025504 | 15 | 288 | 1.6 | 6.4 | 0.00 | 0.00 | 0.00 | 70 | 1011.3 |
| 20260503025005 | 15 | 301 | 1.6 | 8.0 | 0.00 | 0.00 | 0.00 | 70 | 1011.3 |
| 20260503024511 | 15 | 326 | 3.2 | 8.0 | 0.00 | 0.00 | 0.00 | 69 | 1011.2 |
| 20260503024004 | 15 | 339 | 1.6 | 6.4 | 0.00 | 0.00 | 0.00 | 69 | 1011.2 |
| 20260503023507 | 15 | 185 | 0.0 | 8.0 | 0.00 | 0.00 | 0.00 | 69 | 1011.2 |
| 20260503023017 | 16 | 304 | 3.2 | 8.0 | 0.00 | 0.00 | 0.00 | 68 | 1011.1 |
| 20260503022509 | 16 | 310 | 3.2 | 6.4 | 0.00 | 0.00 | 0.00 | 68 | 1011.1 |
| 20260503022007 | 16 | 353 | 0.0 | 6.4 | 0.00 | 0.00 | 0.00 | 68 | 1011.1 |
| 20260503021520 | 16 | 311 | 1.6 | 6.4 | 0.00 | 0.00 | 0.00 | 67 | 1011.0 |
| 20260503021009 | 16 | 295 | 3.2 | 6.4 | 0.00 | 0.00 | 0.00 | 66 | 1010.9 |
| 20260503020509 | 16 | 210 | 1.6 | 11.3 | 0.00 | 0.00 | 0.00 | 66 | 1011.0 |
| 20260503020022 | 17 | 297 | 1.6 | 11.3 | 0.00 | 0.00 | 0.00 | 66 | 1011.0 |
| 20260503015509 | 17 | 304 | 3.2 | 8.0 | 0.00 | 0.00 | 0.00 | 65 | 1011.0 |
| 20260503015011 | 17 | 263 | 3.2 | 11.3 | 0.00 | 0.00 | 0.00 | 64 | 1011.0 |
| 20260503014509 | 17 | 299 | 1.6 | 11.3 | 0.00 | 0.00 | 0.00 | 64 | 1011.0 |
| 20260503014003 | 17 | 304 | 1.6 | 12.9 | 0.00 | 0.00 | 0.00 | 64 | 1011.0 |
| 20260503013504 | 18 | 81 | 1.6 | 12.9 | 0.00 | 0.00 | 0.00 | 63 | 1011.0 |
| 20260503013021 | 18 | 316 | 3.2 | 11.3 | 0.00 | 0.00 | 0.00 | 62 | 1010.9 |
| 20260503012504 | 18 | 360 | 3.2 | 11.3 | 0.00 | 0.00 | 0.00 | 62 | 1010.8 |
| 20260503012008 | 19 | 340 | 3.2 | 9.7 | 0.00 | 0.00 | 0.00 | 60 | 1010.8 |
| 20260503011518 | 19 | 316 | 3.2 | 9.7 | 0.00 | 0.00 | 0.00 | 61 | 1010.8 |
| 20260503011008 | 20 | 15 | 3.2 | 9.7 | 0.00 | 0.00 | 0.00 | 59 | 1010.7 |
| 20260503010507 | 20 | 295 | 3.2 | 9.7 | 0.00 | 0.00 | 0.00 | 58 | 1010.7 |
| 20260503010023 | 20 | 277 | 3.2 | 8.0 | 0.00 | 0.00 | 0.00 | 57 | 1010.6 |
| 20260503005507 | 21 | 167 | 3.2 | 8.0 | 0.00 | 0.00 | 0.00 | 56 | 1010.6 |
| 20260503005009 | 21 | 160 | 3.2 | 8.0 | 0.00 | 0.00 | 0.00 | 55 | 1010.7 |
| 20260503004551 | 21 | 266 | 1.6 | 6.4 | 0.00 | 0.00 | 0.00 | 55 | 1010.8 |
| 20260503004011 | 21 | 113 | 1.6 | 6.4 | 0.00 | 0.00 | 0.00 | 55 | 1010.7 |
| 20260503003508 | 21 | 133 | 3.2 | 6.4 | 0.00 | 0.00 | 0.00 | 54 | 1010.7 |
| 20260503003010 | 21 | 179 | 3.2 | 6.4 | 0.00 | 0.00 | 0.00 | 54 | 1010.7 |
| 20260503002503 | 21 | 130 | 1.6 | 6.4 | 0.00 | 0.00 | 0.00 | 54 | 1010.9 |
| 20260503002012 | 21 | 135 | 3.2 | 9.7 | 0.00 | 0.00 | 0.00 | 54 | 1010.9 |
| 20260503001516 | 21 | 179 | 3.2 | 9.7 | 0.00 | 0.00 | 0.00 | 55 | 1010.9 |
| 20260503001008 | 21 | 162 | 3.2 | 8.0 | 0.00 | 0.00 | 0.00 | 53 | 1010.9 |
| 20260503000511 | 21 | 200 | 3.2 | 8.0 | 0.00 | 0.00 | 0.00 | 54 | 1010.9 |
| 20260503000021 | 21 | 221 | 1.6 | 9.7 | 0.00 | 0.00 | 0.00 | 54 | 1010.9 |
| 20260502235508 | 21 | 156 | 1.6 | 9.7 | 0.00 | 0.00 | 0.00 | 54 | 1010.9 |
| 20260502235009 | 21 | 139 | 3.2 | 6.4 | 0.00 | 0.00 | 0.00 | 54 | 1010.9 |
| 20260502234524 | 21 | 117 | 3.2 | 6.4 | 0.00 | 0.00 | 0.00 | 55 | 1011.0 |
| 20260502234007 | 21 | 129 | 3.2 | 9.7 | 0.00 | 0.00 | 0.00 | 55 | 1011.0 |
| 20260502233507 | 21 | 166 | 4.8 | 9.7 | 0.00 | 0.00 | 0.00 | 55 | 1011.0 |
| 20260502233035 | 21 | 169 | 3.2 | 8.0 | 0.00 | 0.00 | 0.00 | 54 | 1011.0 |
| 20260502232507 | 21 | 156 | 3.2 | 9.7 | 0.00 | 0.00 | 0.00 | 55 | 1011.0 |
| 20260502232010 | 21 | 134 | 3.2 | 9.7 | 0.00 | 0.00 | 0.00 | 56 | 1011.1 |
| 20260502231512 | 21 | 202 | 4.8 | 8.0 | 0.00 | 0.00 | 0.00 | 56 | 1011.2 |
| 20260502231006 | 21 | 184 | 4.8 | 9.7 | 0.00 | 0.00 | 0.00 | 55 | 1011.2 |
| 20260502230506 | 21 | 174 | 3.2 | 11.3 | 0.00 | 0.00 | 0.00 | 55 | 1011.4 |
| 20260502230017 | 21 | 134 | 6.4 | 11.3 | 0.00 | 0.00 | 0.00 | 54 | 1011.5 |
| 20260502225510 | 21 | 176 | 3.2 | 11.3 | 0.00 | 0.00 | 0.00 | 53 | 1011.5 |
| 20260502225011 | 21 | 153 | 3.2 | 11.3 | 0.00 | 0.00 | 0.00 | 54 | 1011.6 |
| 20260502224523 | 21 | 110 | 3.2 | 9.7 | 0.00 | 0.00 | 0.00 | 55 | 1011.7 |
| 20260502224009 | 21 | 187 | 4.8 | 11.3 | 0.00 | 0.00 | 0.00 | 56 | 1011.9 |
| 20260502223509 | 21 | 164 | 6.4 | 11.3 | 0.00 | 0.00 | 0.00 | 55 | 1011.8 |
| 20260502223027 | 21 | 150 | 4.8 | 9.7 | 0.00 | 0.00 | 0.00 | 56 | 1012.0 |
| 20260502222507 | 21 | 110 | 1.6 | 9.7 | 0.00 | 0.00 | 0.00 | 56 | 1012.2 |
| 20260502222008 | 21 | 171 | 3.2 | 8.0 | 0.00 | 0.00 | 0.00 | 56 | 1012.3 |
| 20260502221525 | 21 | 136 | 4.8 | 11.3 | 0.00 | 0.00 | 0.00 | 57 | 1012.4 |
| 20260502221008 | 20 | 119 | 4.8 | 11.3 | 0.00 | 0.00 | 0.00 | 57 | 1012.5 |
| 20260502220508 | 20 | 151 | 1.6 | 11.3 | 0.00 | 0.00 | 0.00 | 57 | 1012.6 |
| 20260502220016 | 20 | 137 | 6.4 | 9.7 | 0.00 | 0.00 | 0.00 | 57 | 1012.7 |
| 20260502215507 | 20 | 131 | 3.2 | 11.3 | 0.00 | 0.00 | 0.00 | 58 | 1012.8 |
| 20260502215004 | 20 | 120 | 3.2 | 12.9 | 0.00 | 0.00 | 0.00 | 59 | 1012.9 |
| 20260502214522 | 20 | 226 | 6.4 | 12.9 | 0.00 | 0.00 | 0.00 | 58 | 1013.0 |
| 20260502214009 | 20 | 168 | 4.8 | 12.9 | 0.00 | 0.00 | 0.00 | 58 | 1013.0 |
| 20260502213513 | 20 | 124 | 4.8 | 11.3 | 0.00 | 0.00 | 0.00 | 58 | 1012.9 |
| 20260502213024 | 20 | 141 | 4.8 | 11.3 | 0.00 | 0.00 | 0.00 | 59 | 1012.9 |
| 20260502212510 | 20 | 198 | 6.4 | 9.7 | 0.00 | 0.00 | 0.00 | 60 | 1012.9 |
| 20260502212009 | 20 | 143 | 6.4 | 9.7 | 0.00 | 0.00 | 0.00 | 59 | 1013.0 |
| 20260502211535 | 19 | 166 | 4.8 | 11.3 | 0.00 | 0.00 | 0.00 | 59 | 1013.0 |
| 20260502211010 | 20 | 215 | 4.8 | 11.3 | 0.00 | 0.00 | 0.00 | 60 | 1013.0 |
| 20260502210509 | 19 | 52 | 4.8 | 8.0 | 0.00 | 0.00 | 0.00 | 62 | 1013.1 |
| 20260502210030 | 18 | 153 | 4.8 | 11.3 | 0.00 | 0.00 | 0.00 | 61 | 1013.3 |
| 20260502205510 | 18 | 162 | 4.8 | 11.3 | 0.00 | 0.00 | 0.00 | 63 | 1013.4 |
| 20260502205008 | 18 | 150 | 8.0 | 11.3 | 0.00 | 0.00 | 0.00 | 62 | 1013.5 |
| 20260502204515 | 18 | 138 | 4.8 | 9.7 | 0.00 | 0.00 | 0.00 | 63 | 1013.6 |
| 20260502204004 | 18 | 141 | 4.8 | 9.7 | 0.00 | 0.00 | 0.00 | 63 | 1013.7 |
| 20260502203508 | 18 | 120 | 4.8 | 12.9 | 0.00 | 0.00 | 0.00 | 63 | 1013.9 |
| 20260502203026 | 18 | 129 | 4.8 | 12.9 | 0.00 | 0.00 | 0.00 | 64 | 1014.0 |
| 20260502202509 | 18 | 200 | 4.8 | 11.3 | 0.00 | 0.00 | 0.00 | 64 | 1014.0 |
| 20260502202011 | 17 | 198 | 4.8 | 12.9 | 0.00 | 0.00 | 0.00 | 64 | 1014.2 |
| 20260502201525 | 17 | 193 | 3.2 | 12.9 | 0.00 | 0.00 | 0.00 | 64 | 1014.2 |
| 20260502201006 | 17 | 191 | 6.4 | 12.9 | 0.00 | 0.00 | 0.00 | 65 | 1014.3 |
| 20260502200510 | 17 | 155 | 4.8 | 12.9 | 0.00 | 0.00 | 0.00 | 64 | 1014.3 |
| 20260502200028 | 17 | 128 | 1.6 | 11.3 | 0.00 | 0.00 | 0.00 | 65 | 1014.3 |
| 20260502195509 | 17 | 184 | 6.4 | 14.5 | 0.00 | 0.00 | 0.00 | 66 | 1014.4 |
| 20260502195010 | 17 | 214 | 6.4 | 14.5 | 0.00 | 0.00 | 0.00 | 65 | 1014.4 |
| 20260502194529 | 17 | 153 | 3.2 | 11.3 | 0.00 | 0.00 | 0.00 | 66 | 1014.4 |
| 20260502194007 | 17 | 142 | 3.2 | 11.3 | 0.00 | 0.00 | 0.00 | 67 | 1014.4 |
| 20260502193511 | 16 | 167 | 4.8 | 9.7 | 0.00 | 0.00 | 0.00 | 68 | 1014.5 |
| 20260502193023 | 16 | 219 | 1.6 | 9.7 | 0.00 | 0.00 | 0.00 | 68 | 1014.6 |
| 20260502192508 | 16 | 207 | 6.4 | 9.7 | 0.00 | 0.00 | 0.00 | 68 | 1014.6 |
| 20260502192008 | 16 | 123 | 3.2 | 11.3 | 0.00 | 0.00 | 0.00 | 69 | 1014.7 |
| 20260502191524 | 16 | 153 | 3.2 | 11.3 | 0.00 | 0.00 | 0.00 | 70 | 1014.7 |
| 20260502191003 | 16 | 157 | 4.8 | 11.3 | 0.00 | 0.00 | 0.00 | 70 | 1014.7 |
| 20260502190504 | 16 | 136 | 0.0 | 6.4 | 0.00 | 0.00 | 0.00 | 71 | 1014.7 |
| 20260502190007 | 16 | 109 | 1.6 | 11.3 | 0.00 | 0.00 | 0.00 | 71 | 1014.7 |
| 20260502185505 | 16 | 226 | 1.6 | 11.3 | 0.00 | 0.00 | 0.00 | 71 | 1014.7 |
| 20260502185006 | 15 | 191 | 3.2 | 8.0 | 0.00 | 0.00 | 0.00 | 71 | 1014.8 |
| 20260502184513 | 15 | 187 | 3.2 | 9.7 | 0.00 | 0.00 | 0.00 | 73 | 1014.8 |
| 20260502184007 | 15 | 131 | 4.8 | 9.7 | 0.00 | 0.00 | 0.00 | 73 | 1014.9 |
| 20260502183505 | 15 | 128 | 1.6 | 6.4 | 0.00 | 0.00 | 0.00 | 75 | 1014.9 |
| 20260502183015 | 15 | 109 | 1.6 | 8.0 | 0.00 | 0.00 | 0.00 | 76 | 1014.9 |
| 20260502182509 | 14 | 82 | 1.6 | 9.7 | 0.00 | 0.00 | 0.00 | 78 | 1014.9 |
| 20260502182015 | 14 | 175 | 1.6 | 9.7 | 0.00 | 0.00 | 0.00 | 78 | 1015.0 |
| 20260502181528 | 14 | 237 | 4.8 | 9.7 | 0.00 | 0.00 | 0.00 | 77 | 1014.9 |
| 20260502181008 | 13 | 181 | 1.6 | 4.8 | 0.00 | 0.00 | 0.00 | 79 | 1014.9 |